sensor_id;sensor_type;location;lat;lon;timestamp;P1;durP1;ratioP1;P2;durP2;ratioP2
19754;SDS011;10036;47.812;9.274;2024-03-02T00:00:14;17.60;;;11.18;;
19754;SDS011;10036;47.812;9.274;2024-03-02T00:02:41;16.30;;;10.70;;
19754;SDS011;10036;47.812;9.274;2024-03-02T00:05:11;16.25;;;10.30;;
19754;SDS011;10036;47.812;9.274;2024-03-02T00:07:39;15.07;;;10.20;;
19754;SDS011;10036;47.812;9.274;2024-03-02T00:10:08;15.00;;;9.95;;
19754;SDS011;10036;47.812;9.274;2024-03-02T00:12:36;15.40;;;10.23;;
19754;SDS011;10036;47.812;9.274;2024-03-02T00:15:04;16.00;;;10.43;;
19754;SDS011;10036;47.812;9.274;2024-03-02T00:17:33;17.45;;;11.02;;
19754;SDS011;10036;47.812;9.274;2024-03-02T00:20:00;20.00;;;10.45;;
19754;SDS011;10036;47.812;9.274;2024-03-02T00:22:29;17.50;;;10.18;;
19754;SDS011;10036;47.812;9.274;2024-03-02T00:24:55;12.80;;;8.88;;
19754;SDS011;10036;47.812;9.274;2024-03-02T00:27:22;14.35;;;9.55;;
19754;SDS011;10036;47.812;9.274;2024-03-02T00:29:50;13.32;;;9.18;;
19754;SDS011;10036;47.812;9.274;2024-03-02T00:32:17;17.33;;;9.20;;
19754;SDS011;10036;47.812;9.274;2024-03-02T00:34:43;13.82;;;9.88;;
19754;SDS011;10036;47.812;9.274;2024-03-02T00:37:13;13.95;;;9.48;;
19754;SDS011;10036;47.812;9.274;2024-03-02T00:39:42;13.50;;;9.20;;
19754;SDS011;10036;47.812;9.274;2024-03-02T00:42:08;14.50;;;9.98;;
19754;SDS011;10036;47.812;9.274;2024-03-02T00:44:38;17.02;;;10.82;;
19754;SDS011;10036;47.812;9.274;2024-03-02T00:47:05;16.38;;;11.02;;
19754;SDS011;10036;47.812;9.274;2024-03-02T00:49:32;16.23;;;11.18;;
19754;SDS011;10036;47.812;9.274;2024-03-02T00:51:59;15.30;;;11.18;;
19754;SDS011;10036;47.812;9.274;2024-03-02T00:54:26;16.40;;;11.45;;
19754;SDS011;10036;47.812;9.274;2024-03-02T00:56:55;16.20;;;11.35;;
19754;SDS011;10036;47.812;9.274;2024-03-02T00:59:23;17.92;;;11.45;;
19754;SDS011;10036;47.812;9.274;2024-03-02T01:01:50;15.95;;;11.25;;
19754;SDS011;10036;47.812;9.274;2024-03-02T01:04:17;16.42;;;11.30;;
19754;SDS011;10036;47.812;9.274;2024-03-02T01:06:44;18.35;;;12.18;;
19754;SDS011;10036;47.812;9.274;2024-03-02T01:09:10;17.05;;;10.98;;
19754;SDS011;10036;47.812;9.274;2024-03-02T01:11:38;18.83;;;11.25;;
19754;SDS011;10036;47.812;9.274;2024-03-02T01:14:07;17.45;;;11.82;;
19754;SDS011;10036;47.812;9.274;2024-03-02T01:16:34;15.05;;;11.30;;
19754;SDS011;10036;47.812;9.274;2024-03-02T01:19:00;18.00;;;11.20;;
19754;SDS011;10036;47.812;9.274;2024-03-02T01:21:27;18.20;;;11.95;;
19754;SDS011;10036;47.812;9.274;2024-03-02T01:23:54;17.10;;;10.95;;
19754;SDS011;10036;47.812;9.274;2024-03-02T01:26:21;16.20;;;10.52;;
19754;SDS011;10036;47.812;9.274;2024-03-02T01:28:48;16.25;;;10.27;;
19754;SDS011;10036;47.812;9.274;2024-03-02T01:31:16;16.58;;;10.45;;
19754;SDS011;10036;47.812;9.274;2024-03-02T01:33:43;18.38;;;10.48;;
19754;SDS011;10036;47.812;9.274;2024-03-02T01:36:10;19.38;;;11.52;;
19754;SDS011;10036;47.812;9.274;2024-03-02T01:38:37;17.52;;;10.95;;
19754;SDS011;10036;47.812;9.274;2024-03-02T01:41:03;15.52;;;10.55;;
19754;SDS011;10036;47.812;9.274;2024-03-02T01:43:30;15.73;;;10.93;;
19754;SDS011;10036;47.812;9.274;2024-03-02T01:45:57;15.00;;;10.70;;
19754;SDS011;10036;47.812;9.274;2024-03-02T01:48:25;16.02;;;10.38;;
19754;SDS011;10036;47.812;9.274;2024-03-02T01:50:52;16.05;;;10.55;;
19754;SDS011;10036;47.812;9.274;2024-03-02T01:53:19;15.88;;;10.77;;
19754;SDS011;10036;47.812;9.274;2024-03-02T01:55:46;17.00;;;10.65;;
19754;SDS011;10036;47.812;9.274;2024-03-02T01:58:13;18.52;;;12.60;;
19754;SDS011;10036;47.812;9.274;2024-03-02T02:00:40;17.25;;;10.70;;
19754;SDS011;10036;47.812;9.274;2024-03-02T02:03:07;16.98;;;11.23;;
19754;SDS011;10036;47.812;9.274;2024-03-02T02:05:35;16.13;;;10.43;;
19754;SDS011;10036;47.812;9.274;2024-03-02T02:08:02;16.80;;;10.65;;
19754;SDS011;10036;47.812;9.274;2024-03-02T02:10:30;13.98;;;10.32;;
19754;SDS011;10036;47.812;9.274;2024-03-02T02:12:57;15.20;;;10.60;;
19754;SDS011;10036;47.812;9.274;2024-03-02T02:15:24;15.55;;;11.10;;
19754;SDS011;10036;47.812;9.274;2024-03-02T02:17:52;15.55;;;10.32;;
19754;SDS011;10036;47.812;9.274;2024-03-02T02:20:19;15.65;;;10.88;;
19754;SDS011;10036;47.812;9.274;2024-03-02T02:22:55;16.50;;;11.48;;
19754;SDS011;10036;47.812;9.274;2024-03-02T02:25:22;17.33;;;11.98;;
19754;SDS011;10036;47.812;9.274;2024-03-02T02:27:49;15.75;;;11.32;;
19754;SDS011;10036;47.812;9.274;2024-03-02T02:30:18;17.52;;;11.77;;
19754;SDS011;10036;47.812;9.274;2024-03-02T02:32:46;16.85;;;11.35;;
19754;SDS011;10036;47.812;9.274;2024-03-02T02:35:13;16.23;;;11.20;;
19754;SDS011;10036;47.812;9.274;2024-03-02T02:37:40;16.20;;;10.93;;
19754;SDS011;10036;47.812;9.274;2024-03-02T02:40:09;15.90;;;11.50;;
19754;SDS011;10036;47.812;9.274;2024-03-02T02:42:36;14.70;;;10.65;;
19754;SDS011;10036;47.812;9.274;2024-03-02T02:45:03;16.63;;;11.38;;
19754;SDS011;10036;47.812;9.274;2024-03-02T02:47:31;16.15;;;11.30;;
19754;SDS011;10036;47.812;9.274;2024-03-02T02:50:00;18.40;;;12.07;;
19754;SDS011;10036;47.812;9.274;2024-03-02T02:52:30;18.02;;;11.70;;
19754;SDS011;10036;47.812;9.274;2024-03-02T02:55:00;15.45;;;10.60;;
19754;SDS011;10036;47.812;9.274;2024-03-02T02:57:29;16.88;;;11.30;;
19754;SDS011;10036;47.812;9.274;2024-03-02T03:00:00;16.73;;;10.95;;
19754;SDS011;10036;47.812;9.274;2024-03-02T03:02:35;18.63;;;11.35;;
19754;SDS011;10036;47.812;9.274;2024-03-02T03:05:02;16.58;;;11.45;;
19754;SDS011;10036;47.812;9.274;2024-03-02T03:07:31;15.73;;;10.68;;
19754;SDS011;10036;47.812;9.274;2024-03-02T03:09:58;16.45;;;11.02;;
19754;SDS011;10036;47.812;9.274;2024-03-02T03:12:24;16.00;;;11.02;;
19754;SDS011;10036;47.812;9.274;2024-03-02T03:14:53;15.60;;;11.18;;
19754;SDS011;10036;47.812;9.274;2024-03-02T03:17:20;19.45;;;11.68;;
19754;SDS011;10036;47.812;9.274;2024-03-02T03:19:47;21.23;;;11.45;;
19754;SDS011;10036;47.812;9.274;2024-03-02T03:22:14;19.40;;;11.40;;
19754;SDS011;10036;47.812;9.274;2024-03-02T03:24:41;40.47;;;13.13;;
19754;SDS011;10036;47.812;9.274;2024-03-02T03:27:08;30.95;;;13.93;;
19754;SDS011;10036;47.812;9.274;2024-03-02T03:29:36;38.10;;;13.95;;
19754;SDS011;10036;47.812;9.274;2024-03-02T03:32:05;34.15;;;15.25;;
19754;SDS011;10036;47.812;9.274;2024-03-02T03:34:32;38.58;;;13.25;;
19754;SDS011;10036;47.812;9.274;2024-03-02T03:37:00;19.77;;;12.63;;
19754;SDS011;10036;47.812;9.274;2024-03-02T03:39:26;18.95;;;11.35;;
19754;SDS011;10036;47.812;9.274;2024-03-02T03:41:53;16.52;;;10.20;;
19754;SDS011;10036;47.812;9.274;2024-03-02T03:44:20;25.95;;;11.38;;
19754;SDS011;10036;47.812;9.274;2024-03-02T03:46:47;23.27;;;11.93;;
19754;SDS011;10036;47.812;9.274;2024-03-02T03:49:15;21.60;;;12.20;;
19754;SDS011;10036;47.812;9.274;2024-03-02T03:51:42;23.05;;;11.70;;
19754;SDS011;10036;47.812;9.274;2024-03-02T03:54:09;36.30;;;11.82;;
19754;SDS011;10036;47.812;9.274;2024-03-02T03:56:37;20.00;;;10.82;;
19754;SDS011;10036;47.812;9.274;2024-03-02T03:59:03;19.88;;;11.43;;
19754;SDS011;10036;47.812;9.274;2024-03-02T04:01:30;20.48;;;11.70;;
19754;SDS011;10036;47.812;9.274;2024-03-02T04:03:58;18.00;;;11.45;;
19754;SDS011;10036;47.812;9.274;2024-03-02T04:06:28;19.67;;;11.10;;
19754;SDS011;10036;47.812;9.274;2024-03-02T04:08:55;18.25;;;11.38;;
19754;SDS011;10036;47.812;9.274;2024-03-02T04:11:22;20.67;;;11.75;;
19754;SDS011;10036;47.812;9.274;2024-03-02T04:13:49;22.98;;;11.57;;
19754;SDS011;10036;47.812;9.274;2024-03-02T04:16:15;21.40;;;12.90;;
19754;SDS011;10036;47.812;9.274;2024-03-02T04:18:42;26.25;;;13.95;;
19754;SDS011;10036;47.812;9.274;2024-03-02T04:21:09;34.95;;;16.17;;
19754;SDS011;10036;47.812;9.274;2024-03-02T04:23:37;28.30;;;14.18;;
19754;SDS011;10036;47.812;9.274;2024-03-02T04:26:04;66.15;;;13.30;;
19754;SDS011;10036;47.812;9.274;2024-03-02T04:28:31;80.65;;;13.75;;
19754;SDS011;10036;47.812;9.274;2024-03-02T04:30:58;30.00;;;11.93;;
19754;SDS011;10036;47.812;9.274;2024-03-02T04:33:25;38.10;;;11.25;;
19754;SDS011;10036;47.812;9.274;2024-03-02T04:35:52;25.33;;;11.05;;
19754;SDS011;10036;47.812;9.274;2024-03-02T04:38:18;19.42;;;11.50;;
19754;SDS011;10036;47.812;9.274;2024-03-02T04:40:47;19.67;;;11.95;;
19754;SDS011;10036;47.812;9.274;2024-03-02T04:43:14;57.95;;;12.52;;
19754;SDS011;10036;47.812;9.274;2024-03-02T04:45:41;20.00;;;11.52;;
19754;SDS011;10036;47.812;9.274;2024-03-02T04:48:08;18.65;;;12.07;;
19754;SDS011;10036;47.812;9.274;2024-03-02T04:50:35;20.48;;;13.50;;
19754;SDS011;10036;47.812;9.274;2024-03-02T04:53:02;23.80;;;12.93;;
19754;SDS011;10036;47.812;9.274;2024-03-02T04:55:29;27.90;;;12.77;;
19754;SDS011;10036;47.812;9.274;2024-03-02T04:58:23;63.08;;;14.55;;
19754;SDS011;10036;47.812;9.274;2024-03-02T05:00:50;37.63;;;14.75;;
19754;SDS011;10036;47.812;9.274;2024-03-02T05:03:16;28.38;;;14.27;;
19754;SDS011;10036;47.812;9.274;2024-03-02T05:05:43;32.90;;;15.90;;
19754;SDS011;10036;47.812;9.274;2024-03-02T05:08:10;34.55;;;16.40;;
19754;SDS011;10036;47.812;9.274;2024-03-02T05:10:37;39.47;;;16.20;;
19754;SDS011;10036;47.812;9.274;2024-03-02T05:13:04;34.80;;;15.60;;
19754;SDS011;10036;47.812;9.274;2024-03-02T05:15:32;24.17;;;14.05;;
19754;SDS011;10036;47.812;9.274;2024-03-02T05:17:58;22.73;;;14.02;;
19754;SDS011;10036;47.812;9.274;2024-03-02T05:20:27;22.83;;;13.50;;
19754;SDS011;10036;47.812;9.274;2024-03-02T05:22:54;31.50;;;14.20;;
19754;SDS011;10036;47.812;9.274;2024-03-02T05:25:21;38.70;;;13.60;;
19754;SDS011;10036;47.812;9.274;2024-03-02T05:27:48;56.20;;;13.73;;
19754;SDS011;10036;47.812;9.274;2024-03-02T05:30:15;57.17;;;13.70;;
19754;SDS011;10036;47.812;9.274;2024-03-02T05:32:43;37.80;;;13.45;;
19754;SDS011;10036;47.812;9.274;2024-03-02T05:35:10;19.77;;;12.63;;
19754;SDS011;10036;47.812;9.274;2024-03-02T05:37:37;19.48;;;11.93;;
19754;SDS011;10036;47.812;9.274;2024-03-02T05:40:05;19.85;;;12.50;;
19754;SDS011;10036;47.812;9.274;2024-03-02T05:42:33;19.13;;;12.40;;
19754;SDS011;10036;47.812;9.274;2024-03-02T05:45:00;19.33;;;12.15;;
19754;SDS011;10036;47.812;9.274;2024-03-02T05:47:27;18.30;;;12.00;;
19754;SDS011;10036;47.812;9.274;2024-03-02T05:49:55;17.98;;;12.38;;
19754;SDS011;10036;47.812;9.274;2024-03-02T05:52:22;19.42;;;11.88;;
19754;SDS011;10036;47.812;9.274;2024-03-02T05:54:49;17.75;;;11.52;;
19754;SDS011;10036;47.812;9.274;2024-03-02T05:57:16;17.10;;;11.35;;
19754;SDS011;10036;47.812;9.274;2024-03-02T05:59:56;22.35;;;12.15;;
19754;SDS011;10036;47.812;9.274;2024-03-02T06:02:24;25.17;;;13.27;;
19754;SDS011;10036;47.812;9.274;2024-03-02T06:04:51;23.25;;;13.07;;
19754;SDS011;10036;47.812;9.274;2024-03-02T06:07:21;26.55;;;13.73;;
19754;SDS011;10036;47.812;9.274;2024-03-02T06:09:48;29.65;;;14.98;;
19754;SDS011;10036;47.812;9.274;2024-03-02T06:12:16;23.70;;;13.68;;
19754;SDS011;10036;47.812;9.274;2024-03-02T06:14:43;25.13;;;13.20;;
19754;SDS011;10036;47.812;9.274;2024-03-02T06:17:10;27.00;;;12.70;;
19754;SDS011;10036;47.812;9.274;2024-03-02T06:19:37;22.55;;;13.05;;
19754;SDS011;10036;47.812;9.274;2024-03-02T06:22:04;58.10;;;12.98;;
19754;SDS011;10036;47.812;9.274;2024-03-02T06:24:32;26.13;;;12.55;;
19754;SDS011;10036;47.812;9.274;2024-03-02T06:26:59;41.13;;;12.88;;
19754;SDS011;10036;47.812;9.274;2024-03-02T06:29:26;25.85;;;13.15;;
19754;SDS011;10036;47.812;9.274;2024-03-02T06:31:53;24.77;;;12.93;;
19754;SDS011;10036;47.812;9.274;2024-03-02T06:34:20;24.88;;;14.15;;
19754;SDS011;10036;47.812;9.274;2024-03-02T06:36:46;29.13;;;14.93;;
19754;SDS011;10036;47.812;9.274;2024-03-02T06:39:13;25.63;;;14.38;;
19754;SDS011;10036;47.812;9.274;2024-03-02T06:41:41;28.55;;;15.70;;
19754;SDS011;10036;47.812;9.274;2024-03-02T06:44:08;51.85;;;19.38;;
19754;SDS011;10036;47.812;9.274;2024-03-02T06:46:35;31.60;;;16.42;;
19754;SDS011;10036;47.812;9.274;2024-03-02T06:49:02;33.40;;;14.38;;
19754;SDS011;10036;47.812;9.274;2024-03-02T06:51:29;26.23;;;14.90;;
19754;SDS011;10036;47.812;9.274;2024-03-02T06:53:56;39.47;;;15.20;;
19754;SDS011;10036;47.812;9.274;2024-03-02T06:56:24;27.60;;;15.00;;
19754;SDS011;10036;47.812;9.274;2024-03-02T06:58:53;28.83;;;15.40;;
19754;SDS011;10036;47.812;9.274;2024-03-02T07:01:20;48.08;;;16.35;;
19754;SDS011;10036;47.812;9.274;2024-03-02T07:03:46;33.88;;;16.77;;
19754;SDS011;10036;47.812;9.274;2024-03-02T07:06:13;81.70;;;17.88;;
19754;SDS011;10036;47.812;9.274;2024-03-02T07:08:40;36.97;;;17.25;;
19754;SDS011;10036;47.812;9.274;2024-03-02T07:11:07;33.55;;;17.30;;
19754;SDS011;10036;47.812;9.274;2024-03-02T07:13:34;35.03;;;18.65;;
19754;SDS011;10036;47.812;9.274;2024-03-02T07:16:03;31.17;;;17.85;;
19754;SDS011;10036;47.812;9.274;2024-03-02T07:18:52;38.28;;;17.88;;
19754;SDS011;10036;47.812;9.274;2024-03-02T07:21:21;47.80;;;18.58;;
19754;SDS011;10036;47.812;9.274;2024-03-02T07:23:48;27.67;;;16.40;;
19754;SDS011;10036;47.812;9.274;2024-03-02T07:26:15;58.97;;;17.02;;
19754;SDS011;10036;47.812;9.274;2024-03-02T07:28:43;25.95;;;16.13;;
19754;SDS011;10036;47.812;9.274;2024-03-02T07:31:12;78.00;;;15.73;;
19754;SDS011;10036;47.812;9.274;2024-03-02T07:33:38;24.58;;;15.38;;
19754;SDS011;10036;47.812;9.274;2024-03-02T07:36:05;22.38;;;14.32;;
19754;SDS011;10036;47.812;9.274;2024-03-02T07:38:33;23.13;;;14.93;;
19754;SDS011;10036;47.812;9.274;2024-03-02T07:41:00;28.50;;;14.40;;
19754;SDS011;10036;47.812;9.274;2024-03-02T07:43:27;29.73;;;14.50;;
19754;SDS011;10036;47.812;9.274;2024-03-02T07:45:54;22.60;;;14.57;;
19754;SDS011;10036;47.812;9.274;2024-03-02T07:48:23;45.03;;;14.70;;
19754;SDS011;10036;47.812;9.274;2024-03-02T07:50:50;50.13;;;14.70;;
19754;SDS011;10036;47.812;9.274;2024-03-02T07:53:17;20.15;;;13.07;;
19754;SDS011;10036;47.812;9.274;2024-03-02T07:55:44;18.65;;;12.82;;
19754;SDS011;10036;47.812;9.274;2024-03-02T07:58:11;24.17;;;13.85;;
19754;SDS011;10036;47.812;9.274;2024-03-02T08:00:38;37.08;;;13.80;;
19754;SDS011;10036;47.812;9.274;2024-03-02T08:03:05;26.42;;;15.00;;
19754;SDS011;10036;47.812;9.274;2024-03-02T08:05:37;56.80;;;14.63;;
19754;SDS011;10036;47.812;9.274;2024-03-02T08:08:05;26.70;;;14.10;;
19754;SDS011;10036;47.812;9.274;2024-03-02T08:10:32;41.35;;;13.75;;
19754;SDS011;10036;47.812;9.274;2024-03-02T08:12:59;60.05;;;15.18;;
19754;SDS011;10036;47.812;9.274;2024-03-02T08:15:26;20.20;;;13.40;;
19754;SDS011;10036;47.812;9.274;2024-03-02T08:17:53;37.17;;;14.43;;
19754;SDS011;10036;47.812;9.274;2024-03-02T08:20:21;43.47;;;14.43;;
19754;SDS011;10036;47.812;9.274;2024-03-02T08:22:49;19.67;;;12.82;;
19754;SDS011;10036;47.812;9.274;2024-03-02T08:25:16;21.02;;;13.75;;
19754;SDS011;10036;47.812;9.274;2024-03-02T08:27:43;67.95;;;14.70;;
19754;SDS011;10036;47.812;9.274;2024-03-02T08:30:11;30.48;;;13.90;;
19754;SDS011;10036;47.812;9.274;2024-03-02T08:32:38;37.17;;;13.43;;
19754;SDS011;10036;47.812;9.274;2024-03-02T08:35:06;23.23;;;13.45;;
19754;SDS011;10036;47.812;9.274;2024-03-02T08:37:33;32.97;;;12.25;;
19754;SDS011;10036;47.812;9.274;2024-03-02T08:40:01;19.98;;;12.25;;
19754;SDS011;10036;47.812;9.274;2024-03-02T08:42:32;18.25;;;12.52;;
19754;SDS011;10036;47.812;9.274;2024-03-02T08:44:59;20.80;;;12.30;;
19754;SDS011;10036;47.812;9.274;2024-03-02T08:47:28;29.02;;;12.57;;
19754;SDS011;10036;47.812;9.274;2024-03-02T08:49:55;38.40;;;13.30;;
19754;SDS011;10036;47.812;9.274;2024-03-02T08:52:21;44.65;;;13.05;;
19754;SDS011;10036;47.812;9.274;2024-03-02T08:54:48;19.42;;;12.57;;
19754;SDS011;10036;47.812;9.274;2024-03-02T08:57:16;18.95;;;12.27;;
19754;SDS011;10036;47.812;9.274;2024-03-02T08:59:43;32.85;;;12.15;;
19754;SDS011;10036;47.812;9.274;2024-03-02T09:02:10;17.23;;;11.85;;
19754;SDS011;10036;47.812;9.274;2024-03-02T09:04:37;20.98;;;12.50;;
19754;SDS011;10036;47.812;9.274;2024-03-02T09:07:04;25.70;;;11.90;;
19754;SDS011;10036;47.812;9.274;2024-03-02T09:09:32;19.42;;;12.52;;
19754;SDS011;10036;47.812;9.274;2024-03-02T09:11:59;17.85;;;12.13;;
19754;SDS011;10036;47.812;9.274;2024-03-02T09:14:27;22.60;;;12.40;;
19754;SDS011;10036;47.812;9.274;2024-03-02T09:16:54;18.45;;;12.45;;
19754;SDS011;10036;47.812;9.274;2024-03-02T09:19:21;16.70;;;11.75;;
19754;SDS011;10036;47.812;9.274;2024-03-02T09:21:48;17.10;;;11.30;;
19754;SDS011;10036;47.812;9.274;2024-03-02T09:24:15;16.80;;;11.45;;
19754;SDS011;10036;47.812;9.274;2024-03-02T09:26:42;16.00;;;11.43;;
19754;SDS011;10036;47.812;9.274;2024-03-02T09:29:09;15.63;;;11.00;;
19754;SDS011;10036;47.812;9.274;2024-03-02T09:31:40;16.70;;;11.00;;
19754;SDS011;10036;47.812;9.274;2024-03-02T09:34:07;18.08;;;11.75;;
19754;SDS011;10036;47.812;9.274;2024-03-02T09:36:34;14.85;;;10.23;;
19754;SDS011;10036;47.812;9.274;2024-03-02T09:39:01;15.38;;;10.88;;
19754;SDS011;10036;47.812;9.274;2024-03-02T09:41:29;18.80;;;11.85;;
19754;SDS011;10036;47.812;9.274;2024-03-02T09:43:55;24.52;;;11.02;;
19754;SDS011;10036;47.812;9.274;2024-03-02T09:46:23;17.25;;;10.75;;
19754;SDS011;10036;47.812;9.274;2024-03-02T09:48:52;18.95;;;10.73;;
19754;SDS011;10036;47.812;9.274;2024-03-02T09:51:19;14.57;;;10.18;;
19754;SDS011;10036;47.812;9.274;2024-03-02T09:53:46;18.75;;;11.32;;
19754;SDS011;10036;47.812;9.274;2024-03-02T09:56:14;16.00;;;11.73;;
19754;SDS011;10036;47.812;9.274;2024-03-02T09:58:41;18.85;;;10.90;;
19754;SDS011;10036;47.812;9.274;2024-03-02T10:01:09;16.48;;;11.23;;
19754;SDS011;10036;47.812;9.274;2024-03-02T10:03:36;15.68;;;10.93;;
19754;SDS011;10036;47.812;9.274;2024-03-02T10:06:21;16.95;;;11.20;;
19754;SDS011;10036;47.812;9.274;2024-03-02T10:08:48;15.77;;;11.32;;
19754;SDS011;10036;47.812;9.274;2024-03-02T10:11:25;17.13;;;10.75;;
19754;SDS011;10036;47.812;9.274;2024-03-02T10:14:03;16.33;;;10.93;;
19754;SDS011;10036;47.812;9.274;2024-03-02T10:16:33;17.88;;;11.95;;
19754;SDS011;10036;47.812;9.274;2024-03-02T10:19:14;18.23;;;12.27;;
19754;SDS011;10036;47.812;9.274;2024-03-02T10:21:44;15.23;;;10.45;;
19754;SDS011;10036;47.812;9.274;2024-03-02T10:24:11;18.52;;;11.80;;
19754;SDS011;10036;47.812;9.274;2024-03-02T10:26:38;16.83;;;11.50;;
19754;SDS011;10036;47.812;9.274;2024-03-02T10:29:06;16.10;;;11.25;;
19754;SDS011;10036;47.812;9.274;2024-03-02T10:31:35;14.45;;;10.82;;
19754;SDS011;10036;47.812;9.274;2024-03-02T10:34:03;14.27;;;10.90;;
19754;SDS011;10036;47.812;9.274;2024-03-02T10:36:30;15.25;;;11.10;;
19754;SDS011;10036;47.812;9.274;2024-03-02T10:38:59;16.58;;;11.45;;
19754;SDS011;10036;47.812;9.274;2024-03-02T10:41:29;16.15;;;11.63;;
19754;SDS011;10036;47.812;9.274;2024-03-02T10:43:58;17.33;;;11.98;;
19754;SDS011;10036;47.812;9.274;2024-03-02T10:46:28;16.55;;;11.57;;
19754;SDS011;10036;47.812;9.274;2024-03-02T10:48:55;15.00;;;11.10;;
19754;SDS011;10036;47.812;9.274;2024-03-02T10:51:24;16.27;;;11.35;;
19754;SDS011;10036;47.812;9.274;2024-03-02T10:53:51;14.68;;;10.57;;
19754;SDS011;10036;47.812;9.274;2024-03-02T10:56:21;15.05;;;11.00;;
19754;SDS011;10036;47.812;9.274;2024-03-02T10:58:52;14.73;;;10.68;;
19754;SDS011;10036;47.812;9.274;2024-03-02T11:01:28;15.73;;;10.10;;
19754;SDS011;10036;47.812;9.274;2024-03-02T11:03:57;14.55;;;10.23;;
19754;SDS011;10036;47.812;9.274;2024-03-02T11:06:26;15.35;;;10.38;;
19754;SDS011;10036;47.812;9.274;2024-03-02T11:08:58;11.32;;;8.82;;
19754;SDS011;10036;47.812;9.274;2024-03-02T11:11:32;11.20;;;8.40;;
19754;SDS011;10036;47.812;9.274;2024-03-02T11:14:04;11.30;;;8.77;;
19754;SDS011;10036;47.812;9.274;2024-03-02T11:16:34;10.15;;;8.00;;
19754;SDS011;10036;47.812;9.274;2024-03-02T11:19:04;8.07;;;5.78;;
19754;SDS011;10036;47.812;9.274;2024-03-02T11:21:32;5.90;;;5.22;;
19754;SDS011;10036;47.812;9.274;2024-03-02T11:24:00;5.82;;;4.72;;
19754;SDS011;10036;47.812;9.274;2024-03-02T11:26:59;4.03;;;3.45;;
19754;SDS011;10036;47.812;9.274;2024-03-02T11:29:45;4.65;;;3.50;;
19754;SDS011;10036;47.812;9.274;2024-03-02T11:32:20;2.67;;;2.40;;
19754;SDS011;10036;47.812;9.274;2024-03-02T11:34:49;2.25;;;2.05;;
19754;SDS011;10036;47.812;9.274;2024-03-02T11:37:16;2.50;;;2.30;;
19754;SDS011;10036;47.812;9.274;2024-03-02T11:39:45;3.88;;;2.78;;
19754;SDS011;10036;47.812;9.274;2024-03-02T11:42:14;3.45;;;2.58;;
19754;SDS011;10036;47.812;9.274;2024-03-02T11:44:42;3.58;;;2.83;;
19754;SDS011;10036;47.812;9.274;2024-03-02T11:47:11;3.33;;;2.53;;
19754;SDS011;10036;47.812;9.274;2024-03-02T11:49:41;2.90;;;2.60;;
19754;SDS011;10036;47.812;9.274;2024-03-02T11:52:10;2.72;;;2.53;;
19754;SDS011;10036;47.812;9.274;2024-03-02T11:54:38;2.45;;;2.25;;
19754;SDS011;10036;47.812;9.274;2024-03-02T11:57:11;2.75;;;2.55;;
19754;SDS011;10036;47.812;9.274;2024-03-02T11:59:40;2.60;;;2.40;;
19754;SDS011;10036;47.812;9.274;2024-03-02T12:02:13;2.55;;;2.33;;
19754;SDS011;10036;47.812;9.274;2024-03-02T12:04:42;3.03;;;2.50;;
19754;SDS011;10036;47.812;9.274;2024-03-02T12:07:10;2.95;;;2.70;;
19754;SDS011;10036;47.812;9.274;2024-03-02T12:09:37;2.85;;;2.50;;
19754;SDS011;10036;47.812;9.274;2024-03-02T12:12:04;2.70;;;2.50;;
19754;SDS011;10036;47.812;9.274;2024-03-02T12:14:34;2.78;;;2.58;;
19754;SDS011;10036;47.812;9.274;2024-03-02T12:17:01;3.88;;;2.53;;
19754;SDS011;10036;47.812;9.274;2024-03-02T12:19:29;2.58;;;2.20;;
19754;SDS011;10036;47.812;9.274;2024-03-02T12:21:57;2.65;;;2.45;;
19754;SDS011;10036;47.812;9.274;2024-03-02T12:24:26;2.70;;;2.40;;
19754;SDS011;10036;47.812;9.274;2024-03-02T12:26:54;2.47;;;2.25;;
19754;SDS011;10036;47.812;9.274;2024-03-02T12:29:21;3.20;;;2.80;;
19754;SDS011;10036;47.812;9.274;2024-03-02T12:31:51;2.65;;;1.90;;
19754;SDS011;10036;47.812;9.274;2024-03-02T12:34:18;2.22;;;2.03;;
19754;SDS011;10036;47.812;9.274;2024-03-02T12:36:46;2.58;;;1.80;;
19754;SDS011;10036;47.812;9.274;2024-03-02T12:39:15;4.00;;;2.85;;
19754;SDS011;10036;47.812;9.274;2024-03-02T12:41:42;20.80;;;11.40;;
19754;SDS011;10036;47.812;9.274;2024-03-02T12:44:09;2.17;;;1.98;;
19754;SDS011;10036;47.812;9.274;2024-03-02T12:46:36;1.40;;;1.30;;
19754;SDS011;10036;47.812;9.274;2024-03-02T12:49:09;1.70;;;1.58;;
19754;SDS011;10036;47.812;9.274;2024-03-02T12:51:37;5.35;;;3.20;;
19754;SDS011;10036;47.812;9.274;2024-03-02T12:54:05;4.85;;;3.47;;
19754;SDS011;10036;47.812;9.274;2024-03-02T12:56:33;4.50;;;2.97;;
19754;SDS011;10036;47.812;9.274;2024-03-02T12:59:01;2.25;;;1.92;;
19754;SDS011;10036;47.812;9.274;2024-03-02T13:01:28;1.88;;;1.77;;
19754;SDS011;10036;47.812;9.274;2024-03-02T13:03:56;1.60;;;1.50;;
19754;SDS011;10036;47.812;9.274;2024-03-02T13:06:26;1.75;;;1.65;;
19754;SDS011;10036;47.812;9.274;2024-03-02T13:08:54;2.30;;;2.10;;
19754;SDS011;10036;47.812;9.274;2024-03-02T13:11:21;2.08;;;1.98;;
19754;SDS011;10036;47.812;9.274;2024-03-02T13:13:49;2.10;;;1.90;;
19754;SDS011;10036;47.812;9.274;2024-03-02T13:16:17;2.50;;;2.30;;
19754;SDS011;10036;47.812;9.274;2024-03-02T13:18:45;2.42;;;2.22;;
19754;SDS011;10036;47.812;9.274;2024-03-02T13:21:12;2.83;;;1.83;;
19754;SDS011;10036;47.812;9.274;2024-03-02T13:23:41;2.20;;;2.00;;
19754;SDS011;10036;47.812;9.274;2024-03-02T13:26:08;2.30;;;2.13;;
19754;SDS011;10036;47.812;9.274;2024-03-02T13:28:36;2.30;;;2.10;;
19754;SDS011;10036;47.812;9.274;2024-03-02T13:31:04;2.10;;;1.90;;
19754;SDS011;10036;47.812;9.274;2024-03-02T13:33:31;2.33;;;2.20;;
19754;SDS011;10036;47.812;9.274;2024-03-02T13:35:58;2.72;;;2.05;;
19754;SDS011;10036;47.812;9.274;2024-03-02T13:38:26;2.35;;;2.15;;
19754;SDS011;10036;47.812;9.274;2024-03-02T13:40:54;2.53;;;1.80;;
19754;SDS011;10036;47.812;9.274;2024-03-02T13:43:22;4.30;;;3.33;;
19754;SDS011;10036;47.812;9.274;2024-03-02T13:45:49;1.88;;;1.77;;
19754;SDS011;10036;47.812;9.274;2024-03-02T13:48:18;2.00;;;1.90;;
19754;SDS011;10036;47.812;9.274;2024-03-02T13:50:45;2.22;;;1.98;;
19754;SDS011;10036;47.812;9.274;2024-03-02T13:53:12;1.75;;;1.65;;
19754;SDS011;10036;47.812;9.274;2024-03-02T13:55:39;1.90;;;1.80;;
19754;SDS011;10036;47.812;9.274;2024-03-02T13:58:08;1.50;;;1.30;;
19754;SDS011;10036;47.812;9.274;2024-03-02T14:00:36;2.05;;;1.95;;
19754;SDS011;10036;47.812;9.274;2024-03-02T14:03:02;1.80;;;1.70;;
19754;SDS011;10036;47.812;9.274;2024-03-02T14:05:30;4.97;;;2.00;;
19754;SDS011;10036;47.812;9.274;2024-03-02T14:07:57;2.28;;;1.85;;
19754;SDS011;10036;47.812;9.274;2024-03-02T14:10:25;2.13;;;1.92;;
19754;SDS011;10036;47.812;9.274;2024-03-02T14:12:53;1.80;;;1.70;;
19754;SDS011;10036;47.812;9.274;2024-03-02T14:15:21;1.88;;;1.77;;
19754;SDS011;10036;47.812;9.274;2024-03-02T14:17:49;2.08;;;1.98;;
19754;SDS011;10036;47.812;9.274;2024-03-02T14:20:16;2.10;;;1.90;;
19754;SDS011;10036;47.812;9.274;2024-03-02T14:22:47;2.00;;;1.90;;
19754;SDS011;10036;47.812;9.274;2024-03-02T14:25:14;1.55;;;1.45;;
19754;SDS011;10036;47.812;9.274;2024-03-02T14:27:40;3.17;;;1.70;;
19754;SDS011;10036;47.812;9.274;2024-03-02T14:30:07;2.10;;;2.00;;
19754;SDS011;10036;47.812;9.274;2024-03-02T14:32:36;2.40;;;2.10;;